createdAt,value
2019-01-17T00:00:04.906Z,98689.94
2019-01-17T00:05:37.474Z,98672.80
2019-01-17T00:11:04.684Z,98674.00
2019-01-17T00:16:26.829Z,98664.81
2019-01-17T00:21:49.704Z,98656.09
2019-01-17T00:27:21.699Z,98637.56
2019-01-17T00:32:43.761Z,98645.29
2019-01-17T00:38:07.652Z,98657.89
2019-01-17T00:43:23.984Z,98657.89
2019-01-17T00:48:46.007Z,98628.38
2019-01-17T00:54:21.256Z,98628.38
2019-01-17T00:59:53.256Z,98652.02
2019-01-17T01:05:15.933Z,98652.02
2019-01-17T01:10:30.278Z,98640.48
2019-01-17T01:15:54.986Z,98659.77
2019-01-17T01:21:21.098Z,98653.70
2019-01-17T01:26:41.763Z,98659.14
2019-01-17T01:32:07.754Z,98659.14
2019-01-17T01:37:36.869Z,98660.70
2019-01-17T01:42:58.461Z,98673.07
2019-01-17T01:48:24.497Z,98673.07
2019-01-17T01:53:28.624Z,98673.13
2019-01-17T01:58:32.667Z,98674.54
2019-01-17T02:03:36.742Z,98674.54
2019-01-17T02:08:40.906Z,98683.25
2019-01-17T02:13:45.802Z,98685.59
2019-01-17T02:18:50.157Z,98689.73
2019-01-17T02:23:54.220Z,98708.55
2019-01-17T02:28:58.250Z,98708.55
2019-01-17T02:34:02.407Z,98703.34
2019-01-17T02:39:08.299Z,98686.17
2019-01-17T02:44:12.371Z,98683.09
2019-01-17T02:49:16.474Z,98683.09
2019-01-17T02:54:20.588Z,98674.48
2019-01-17T02:59:25.491Z,98669.02
2019-01-17T03:04:29.586Z,98671.71
2019-01-17T03:09:33.695Z,98655.50
2019-01-17T03:14:37.728Z,98655.50
2019-01-17T03:19:41.840Z,98639.68
2019-01-17T03:24:45.922Z,98635.30
2019-01-17T03:29:50.107Z,98624.82
2019-01-17T03:34:54.246Z,98629.70
2019-01-17T03:39:58.349Z,98644.97
2019-01-17T03:45:02.734Z,98644.97
2019-01-17T03:50:08.951Z,98639.39
2019-01-17T03:55:15.733Z,98622.55
2019-01-17T04:00:21.397Z,98622.69
2019-01-17T04:05:25.485Z,98631.24
2019-01-17T04:10:29.505Z,98623.83
2019-01-17T04:15:33.521Z,98623.45
2019-01-17T04:20:37.702Z,98635.18
2019-01-17T04:25:41.797Z,98635.18
2019-01-17T04:30:45.966Z,98655.12
2019-01-17T04:35:50.156Z,98655.12
2019-01-17T04:40:54.171Z,98654.97
2019-01-17T04:45:58.345Z,98644.03
2019-01-17T04:51:02.402Z,98648.96
2019-01-17T04:56:06.644Z,98641.69
2019-01-17T05:01:10.778Z,98630.70
2019-01-17T05:06:14.849Z,98636.87
2019-01-17T05:11:18.930Z,98633.45
2019-01-17T05:16:23.089Z,98646.03
2019-01-17T05:21:27.207Z,98653.38
2019-01-17T05:26:31.336Z,98672.67
2019-01-17T05:31:35.382Z,98672.67
2019-01-17T05:36:39.526Z,98678.16
2019-01-17T05:41:43.569Z,98675.45
2019-01-17T05:46:47.750Z,98665.21
2019-01-17T05:51:51.932Z,98665.21
2019-01-17T05:56:56.001Z,98689.19
2019-01-17T06:02:00.184Z,98689.19
2019-01-17T06:07:04.321Z,98692.97
2019-01-17T06:12:08.525Z,98688.23
2019-01-17T06:17:12.575Z,98698.98
2019-01-17T06:22:16.917Z,98691.42
2019-01-17T06:27:21.029Z,98691.42
2019-01-17T06:32:25.067Z,98669.23
2019-01-17T06:37:29.201Z,98666.17
2019-01-17T06:42:33.328Z,98669.23
2019-01-17T06:47:37.510Z,98673.22
2019-01-17T06:52:41.676Z,98676.20
2019-01-17T06:57:45.762Z,98680.23
2019-01-17T07:02:49.956Z,98692.81
2019-01-17T07:07:54.238Z,98692.81
2019-01-17T07:12:58.355Z,98695.14
2019-01-17T07:18:02.398Z,98702.45
2019-01-17T07:23:06.648Z,98702.45
2019-01-17T07:28:10.824Z,98708.46
2019-01-17T07:33:14.950Z,98718.35
2019-01-17T07:38:19.144Z,98736.29
2019-01-17T07:43:23.331Z,98736.29
2019-01-17T07:48:27.462Z,98727.53
2019-01-17T07:53:31.678Z,98735.20
2019-01-17T07:58:35.924Z,98728.14
2019-01-17T08:03:39.923Z,98731.72
2019-01-17T08:08:44.063Z,98744.42
2019-01-17T08:13:48.257Z,98763.86
2019-01-17T08:18:53.633Z,98763.86
2019-01-17T08:23:57.641Z,98758.98
2019-01-17T08:29:01.835Z,98755.38
2019-01-17T08:34:05.991Z,98756.27
2019-01-17T08:39:10.209Z,98756.27
2019-01-17T08:44:14.340Z,98733.35
2019-01-17T08:49:18.563Z,98723.59
2019-01-17T08:54:22.621Z,98746.91
2019-01-17T08:59:26.783Z,98741.61
2019-01-17T09:04:31.196Z,98759.02
2019-01-17T09:09:35.245Z,98762.80
2019-01-17T09:14:39.346Z,98755.34
2019-01-17T09:19:43.692Z,98745.30
2019-01-17T09:24:47.744Z,98767.53
2019-01-17T09:29:51.803Z,98764.63
2019-01-17T09:34:55.869Z,98764.87
2019-01-17T09:39:59.919Z,98762.27
2019-01-17T09:45:04.611Z,98763.89
2019-01-17T09:50:12.962Z,98775.06
2019-01-17T09:55:17.148Z,98775.06
2019-01-17T10:00:26.348Z,98763.48
2019-01-17T10:05:30.483Z,98763.48
2019-01-17T10:10:34.644Z,98740.11
2019-01-17T10:15:58.022Z,98750.38
2019-01-17T10:21:25.840Z,98752.27
2019-01-17T10:26:52.275Z,98761.79
2019-01-17T10:32:18.121Z,98764.97
2019-01-17T10:37:55.286Z,98737.83
2019-01-17T10:43:15.710Z,98732.81
2019-01-17T10:48:59.966Z,98707.27
2019-01-17T10:54:22.345Z,98720.37
2019-01-17T10:59:53.690Z,98720.37
2019-01-17T11:05:36.646Z,98706.97
2019-01-17T11:11:23.791Z,98706.97
2019-01-17T11:17:30.130Z,98692.24
2019-01-17T11:23:10.448Z,98694.02
2019-01-17T11:28:52.590Z,98681.00
2019-01-17T11:34:35.838Z,98673.80
2019-01-17T11:40:08.717Z,98690.20
2019-01-17T11:45:50.557Z,98671.17
2019-01-17T11:51:39.204Z,98671.17
2019-01-17T11:57:27.603Z,98672.62
2019-01-17T12:03:27.916Z,98661.81
2019-01-17T12:08:32.175Z,98674.34
2019-01-17T12:13:36.200Z,98664.55
2019-01-17T12:18:40.231Z,98658.63
2019-01-17T12:23:44.320Z,98666.55
2019-01-17T12:28:48.445Z,98666.55
2019-01-17T12:33:52.445Z,98662.05
2019-01-17T12:38:56.464Z,98633.58
2019-01-17T12:44:00.559Z,98617.25
2019-01-17T12:49:05.573Z,98630.05
2019-01-17T12:54:09.757Z,98611.98
2019-01-17T12:59:13.936Z,98622.04
2019-01-17T13:04:18.109Z,98602.48
2019-01-17T13:09:22.517Z,98622.98
2019-01-17T13:14:26.653Z,98622.98
2019-01-17T13:19:30.829Z,98634.72
2019-01-17T13:24:34.831Z,98628.59
2019-01-17T13:29:38.845Z,98609.46
2019-01-17T13:34:42.841Z,98597.20
2019-01-17T13:39:46.944Z,98578.25
2019-01-17T13:44:51.060Z,98583.64
2019-01-17T13:49:55.063Z,98590.17
2019-01-17T13:54:59.080Z,98587.13
2019-01-17T14:00:03.431Z,98587.13
2019-01-17T14:05:07.666Z,98574.31
2019-01-17T14:10:11.885Z,98568.73
2019-01-17T14:15:18.869Z,98568.58
2019-01-17T14:20:22.955Z,98568.58
2019-01-17T14:25:27.057Z,98561.02
2019-01-17T14:30:32.694Z,98550.53
2019-01-17T14:35:36.777Z,98550.53
2019-01-17T14:40:40.884Z,98566.64
2019-01-17T14:45:44.910Z,98551.78
2019-01-17T14:50:49.006Z,98554.82
2019-01-17T14:55:53.075Z,98554.82
2019-01-17T15:00:57.160Z,98549.66
2019-01-17T15:06:01.253Z,98536.30
2019-01-17T15:11:05.429Z,98536.30
2019-01-17T15:16:09.606Z,98552.11
2019-01-17T15:21:13.695Z,98516.13
2019-01-17T15:26:17.717Z,98516.13
2019-01-17T15:31:21.882Z,98519.23
2019-01-17T15:36:25.977Z,98516.09
2019-01-17T15:41:30.002Z,98516.09
2019-01-17T15:46:34.102Z,98513.97
2019-01-17T15:51:38.212Z,98519.08
2019-01-17T15:56:42.356Z,98494.31
2019-01-17T16:01:46.521Z,98514.55
2019-01-17T16:06:50.710Z,98514.47
2019-01-17T16:11:54.727Z,98518.35
2019-01-17T16:16:58.734Z,98527.34
2019-01-17T16:22:02.887Z,98508.11
2019-01-17T16:27:07.459Z,98508.11
2019-01-17T16:32:11.911Z,98515.70
2019-01-17T16:37:16.026Z,98515.70
2019-01-17T16:42:20.106Z,98508.44
2019-01-17T16:47:24.244Z,98513.82
2019-01-17T16:52:28.329Z,98522.45
2019-01-17T16:57:32.446Z,98530.11
2019-01-17T17:02:36.549Z,98537.59
2019-01-17T17:07:40.626Z,98540.70
2019-01-17T17:12:44.722Z,98519.16
2019-01-17T17:17:48.834Z,98538.56
2019-01-17T17:22:53.185Z,98549.70
2019-01-17T17:27:57.199Z,98577.19
2019-01-17T17:33:01.224Z,98590.89
2019-01-17T17:38:05.507Z,98618.83
2019-01-17T17:43:09.630Z,98608.06
2019-01-17T17:48:13.737Z,98610.85
2019-01-17T17:53:17.890Z,98625.36
2019-01-17T17:58:21.941Z,98653.39
2019-01-17T18:03:25.974Z,98671.38
2019-01-17T18:08:30.106Z,98687.38
2019-01-17T18:13:34.242Z,98687.38
2019-01-17T18:18:38.418Z,98696.31
2019-01-17T18:23:42.416Z,98710.03
2019-01-17T18:28:46.568Z,98710.03
2019-01-17T18:33:51.101Z,98727.02
2019-01-17T18:38:55.302Z,98740.45
2019-01-17T18:43:59.424Z,98766.42
2019-01-17T18:49:03.592Z,98773.23
2019-01-17T18:54:07.904Z,98780.24
2019-01-17T18:59:12.226Z,98791.11
2019-01-17T19:04:16.328Z,98797.91
2019-01-17T19:09:20.344Z,98798.73
2019-01-17T19:14:24.431Z,98809.38
2019-01-17T19:19:28.530Z,98831.72
2019-01-17T19:24:32.627Z,98831.72
2019-01-17T19:29:36.711Z,98849.89
2019-01-17T19:34:41.521Z,98859.56
2019-01-17T19:39:45.684Z,98866.03
2019-01-17T19:44:49.683Z,98880.08
2019-01-17T19:49:53.762Z,98887.31
2019-01-17T19:54:57.766Z,98904.90
2019-01-17T20:00:01.786Z,98912.05
2019-01-17T20:05:07.831Z,98912.05
2019-01-17T20:10:18.025Z,98929.16
2019-01-17T20:15:22.232Z,98929.16
2019-01-17T20:20:31.910Z,98942.95
2019-01-17T20:25:32.828Z,98962.68
2019-01-17T20:30:37.141Z,98943.20
2019-01-17T20:35:41.178Z,98962.71
2019-01-17T20:40:45.385Z,98953.16
2019-01-17T20:45:49.399Z,98980.17
2019-01-17T20:50:53.402Z,98982.08
2019-01-17T20:55:57.606Z,98975.75
2019-01-17T21:01:37.128Z,99007.53
2019-01-17T21:06:41.314Z,99019.72
2019-01-17T21:11:45.419Z,99039.43
2019-01-17T21:16:49.565Z,99052.90
2019-01-17T21:21:53.789Z,99056.19
2019-01-17T21:26:57.809Z,99060.27
2019-01-17T21:32:01.892Z,99065.27
2019-01-17T21:37:05.990Z,99071.99
2019-01-17T21:42:10.057Z,99073.88
2019-01-17T21:47:14.110Z,99082.20
2019-01-17T21:52:18.205Z,99090.91
2019-01-17T21:57:22.263Z,99100.08
2019-01-17T22:02:26.382Z,99115.38
2019-01-17T22:07:30.427Z,99106.52
2019-01-17T22:12:34.607Z,99118.88
2019-01-17T22:17:38.717Z,99138.41
2019-01-17T22:22:42.938Z,99129.59
2019-01-17T22:27:47.970Z,99130.23
2019-01-17T22:32:52.347Z,99156.51
2019-01-17T22:37:56.507Z,99163.88
2019-01-17T22:43:00.583Z,99163.88
2019-01-17T22:48:04.865Z,99166.95
2019-01-17T22:53:09.067Z,99169.25
2019-01-17T22:58:13.182Z,99170.49
2019-01-17T23:03:17.440Z,99177.47
2019-01-17T23:08:21.652Z,99181.86
2019-01-17T23:13:25.719Z,99187.95
2019-01-17T23:18:29.953Z,99181.36
2019-01-17T23:23:33.974Z,99181.36
2019-01-17T23:28:38.060Z,99188.94
2019-01-17T23:33:42.209Z,99191.27
2019-01-17T23:38:46.431Z,99190.17
2019-01-17T23:43:50.627Z,99190.17
2019-01-17T23:48:54.903Z,99216.13
2019-01-17T23:53:59.995Z,99218.54
2019-01-17T23:59:04.301Z,99218.54
